Airfield :
LOGIN :

Register | Disclaimer

   EN    FR    IT 

 










Legend :    VFR   Marginal VFR   IFR   Intensive IFR   Very Intensive IFR
Visi :
Ceiling :
>= 8 km
>= 3000ft
5 to 8 km
1000 to 3000 ft
1500m to 5 km
500 to 1000 ft
800 to 1500m
200 to 500 ft
< 800m
< 200 ft
Symbols :   Thunderstorms  Fog  Heavy snow  Heavy precipitations  Wind > 20 kt
SIGMETs :     Misc.  Thunderstorms  Icing  Turbulence  Mountain Waves  Volcanic Ashes






- Airport Elevation : 106 ft
- IATA code : NRN


EDLV - Weeze

CURRENT METAR :
  • 100450Z 19012KT CAVOK 21/09 Q0999

EXPIRED METARs :
  • 100420Z 19014G25KT 160V220 CAVOK 21/09 Q0999
  • 100350Z 19012G23KT 9999 FEW033 21/09 Q0999
  • 100320Z 18010KT CAVOK 22/09 Q0998
  • 100250Z 19012KT 9999 FEW032 22/09 Q0999

TAF TAF EDLV
Valid from the 10 at 04:00 until the 11 at 00:00 UTC


100320Z 1004/1024 17010KT 9999 SCT040
BECMG 1007/1010 23012KT
BECMG 1015/1017 20007KT
BECMG 1018/1021 VRB02KT
PROB30
TEMPO 1021/1024 4000 BR



MET'MAP, your aeronautical weather chart ! - Copyright ORBIFLY December 2007 - Disclaimer

ORBIFLY MET'MAP TEAM :

Programming & Development : Alexandra Zaïnal
Concept & original design : Baudouin d'Aumeries
Assistance for programming : Marc-Olivier Méhu
Technical & hardware support : Manuel Goepfert

Contact : metmap@orbifly.com




SOURCES & CREDITS :

   NOAA